Time;durP1;ratioP1;P1;durP2;ratioP2;P2;SDS_P1;SDS_P2;PMS_P1;PMS_P2;Temp;Humidity;BMP_temperature;BMP_pressure;BME280_temperature;BME280_humidity;BME280_pressure;Samples;Min_cycle;Max_cycle;Signal;HPM_P1;HPM_P2
2022/10/25 00:01:50;;;;;;;18.58;9.82;;;13.50;99.90;;;;;;5051964;28;20052;-66
2022/10/25 00:04:16;;;;;;;18.10;10.07;;;13.50;99.90;;;;;;5051866;28;20068;-67
2022/10/25 00:06:42;;;;;;;17.90;9.90;;;13.50;99.90;;;;;;5051517;28;20072;-67
2022/10/25 00:09:08;;;;;;;16.80;8.88;;;13.50;99.90;;;;;;5051857;28;20071;-67
2022/10/25 00:11:34;;;;;;;15.48;9.00;;;13.50;99.90;;;;;;5050322;28;20044;-67
2022/10/25 00:14:03;;;;;;;20.23;9.75;;;13.50;99.90;;;;;;5051444;28;20503;-67
2022/10/25 00:16:32;;;;;;;16.63;9.32;;;13.50;99.90;;;;;;5049748;28;20388;-66
2022/10/25 00:18:58;;;;;;;16.58;9.30;;;13.60;99.90;;;;;;5051950;28;20160;-66
2022/10/25 00:21:24;;;;;;;17.35;9.38;;;13.50;99.90;;;;;;5051593;28;20521;-67
2022/10/25 00:23:50;;;;;;;18.58;9.18;;;13.50;99.90;;;;;;5051397;28;20452;-66
2022/10/25 00:26:16;;;;;;;15.32;9.00;;;13.40;99.90;;;;;;5051732;28;20037;-67
2022/10/25 00:28:42;;;;;;;15.63;9.15;;;13.40;99.90;;;;;;5050205;28;20047;-67
2022/10/25 00:31:10;;;;;;;14.43;9.32;;;13.40;99.90;;;;;;5050344;28;20498;-67
2022/10/25 00:33:37;;;;;;;15.27;8.60;;;13.30;99.90;;;;;;5051716;28;20033;-66
2022/10/25 00:36:12;;;;;;;21.25;9.45;;;13.40;99.90;;;;;;5050316;28;20436;-67
2022/10/25 00:38:38;;;;;;;14.55;8.38;;;13.30;99.90;;;;;;5050233;28;20072;-67
2022/10/25 00:41:05;;;;;;;17.42;8.25;;;13.30;99.90;;;;;;5051269;28;20405;-67
2022/10/25 00:43:40;;;;;;;13.07;7.82;;;13.20;99.90;;;;;;5051653;28;20045;-67
2022/10/25 00:46:20;;;;;;;18.73;8.20;;;13.20;99.90;;;;;;5050381;28;20045;-67
2022/10/25 00:49:08;;;;;;;17.20;8.05;;;13.20;99.90;;;;;;5051621;28;20038;-67
2022/10/25 00:51:40;;;;;;;15.05;8.48;;;13.20;99.90;;;;;;5051431;28;20041;-67
2022/10/25 00:54:07;;;;;;;16.38;8.48;;;13.20;99.90;;;;;;5051011;28;20481;-66
2022/10/25 00:56:36;;;;;;;13.10;8.15;;;13.10;99.90;;;;;;5051394;28;20071;-67
2022/10/25 00:59:07;;;;;;;17.60;8.23;;;13.10;99.90;;;;;;5050201;28;20532;-66
2022/10/25 01:01:32;;;;;;;14.15;7.90;;;13.10;99.90;;;;;;5051125;28;20670;-67
2022/10/25 01:04:03;;;;;;;14.48;7.50;;;13.10;99.90;;;;;;5051270;28;20037;-67
2022/10/25 01:06:33;;;;;;;14.25;8.48;;;13.10;99.90;;;;;;5049882;28;20116;-67
2022/10/25 01:09:00;;;;;;;17.70;7.50;;;13.10;99.90;;;;;;5051490;28;20132;-67
2022/10/25 01:11:26;;;;;;;14.20;7.10;;;13.20;99.90;;;;;;5049923;28;20091;-67
2022/10/25 01:13:52;;;;;;;15.30;7.38;;;13.20;99.90;;;;;;5051053;28;20063;-67
2022/10/25 01:16:36;;;;;;;13.35;7.15;;;13.20;99.90;;;;;;5051307;28;20040;-67
2022/10/25 01:19:26;;;;;;;15.45;6.95;;;13.20;99.90;;;;;;5051301;28;20294;-67
2022/10/25 01:22:02;;;;;;;16.02;7.25;;;13.10;99.90;;;;;;5050936;28;20037;-67
2022/10/25 01:24:37;;;;;;;13.88;7.07;;;13.10;99.90;;;;;;5051017;28;20398;-67
2022/10/25 01:27:22;;;;;;;18.00;7.20;;;13.20;99.90;;;;;;5051745;28;20037;-67
2022/10/25 01:30:11;;;;;;;13.02;6.55;;;13.10;99.90;;;;;;5055037;28;20482;-67
2022/10/25 01:33:19;;;;;;;11.63;6.32;;;13.10;99.90;;;;;;5053456;28;20124;-67
2022/10/25 01:36:00;;;;;;;12.60;6.70;;;13.10;99.90;;;;;;5043836;28;20061;-67
2022/10/25 01:38:59;;;;;;;12.23;6.50;;;13.10;99.90;;;;;;5054462;28;20045;-67
2022/10/25 01:41:34;;;;;;;13.85;6.85;;;13.10;99.90;;;;;;5054647;28;20056;-67
2022/10/25 01:44:07;;;;;;;17.25;6.95;;;13.10;99.90;;;;;;5054398;28;20045;-66
2022/10/25 01:46:45;;;;;;;11.55;6.45;;;13.10;99.90;;;;;;5053598;28;20424;-66
2022/10/25 01:49:39;;;;;;;14.48;6.18;;;13.10;99.90;;;;;;5054413;28;20495;-67
2022/10/25 01:52:04;;;;;;;12.48;6.53;;;13.10;99.90;;;;;;5053549;28;20049;-67
2022/10/25 01:54:30;;;;;;;11.45;6.18;;;13.10;99.90;;;;;;5054129;28;20163;-67
2022/10/25 01:57:10;;;;;;;13.90;6.15;;;13.10;99.90;;;;;;5054597;28;20509;-67
2022/10/25 01:59:54;;;;;;;13.82;6.00;;;13.00;99.90;;;;;;5054161;28;20053;-67
2022/10/25 02:02:24;;;;;;;11.27;5.70;;;13.00;99.90;;;;;;5054208;28;20037;-67
2022/10/25 02:04:59;;;;;;;13.25;6.53;;;13.00;99.90;;;;;;5052706;28;20044;-67
2022/10/25 02:07:37;;;;;;;18.27;6.40;;;12.90;99.90;;;;;;5054337;28;20068;-67
2022/10/25 02:10:09;;;;;;;13.88;6.32;;;12.90;99.90;;;;;;5054212;28;20036;-67
2022/10/25 02:12:44;;;;;;;16.73;6.33;;;12.90;99.90;;;;;;5054410;28;20378;-67
2022/10/25 02:15:19;;;;;;;10.90;5.70;;;13.00;99.90;;;;;;5053877;28;20448;-66
2022/10/25 02:18:06;;;;;;;12.10;5.70;;;12.90;99.90;;;;;;5052613;28;20037;-67
2022/10/25 02:20:34;;;;;;;14.18;6.10;;;12.90;99.90;;;;;;5053939;28;20257;-67
2022/10/25 02:23:03;;;;;;;11.30;6.78;;;13.00;99.90;;;;;;5052524;28;20701;-67
2022/10/25 02:25:32;;;;;;;11.70;5.93;;;13.00;99.90;;;;;;5053707;28;20037;-67
2022/10/25 02:28:02;;;;;;;14.38;5.85;;;13.00;99.90;;;;;;5054007;28;20393;-67
2022/10/25 02:30:30;;;;;;;13.82;7.03;;;12.90;99.90;;;;;;5054010;28;20076;-67
2022/10/25 02:32:57;;;;;;;13.07;7.30;;;13.00;99.90;;;;;;5053544;28;20090;-67
2022/10/25 02:35:22;;;;;;;21.88;7.63;;;13.00;99.90;;;;;;5053588;28;20059;-67
2022/10/25 02:37:48;;;;;;;16.40;8.20;;;13.00;99.90;;;;;;5052190;28;20041;-67
2022/10/25 02:40:13;;;;;;;14.63;7.80;;;13.10;99.90;;;;;;5051684;28;20563;-67
2022/10/25 02:42:39;;;;;;;16.55;8.57;;;13.00;99.90;;;;;;5051921;28;20041;-67
2022/10/25 02:45:05;;;;;;;16.05;8.27;;;13.10;99.90;;;;;;5052139;28;20511;-67
2022/10/25 02:47:31;;;;;;;14.65;8.48;;;13.10;99.90;;;;;;5053380;28;20485;-67
2022/10/25 02:49:57;;;;;;;16.70;8.85;;;13.20;99.90;;;;;;5053277;28;20063;-66
2022/10/25 02:52:22;;;;;;;15.30;8.23;;;13.10;99.90;;;;;;5051964;28;20520;-67
2022/10/25 02:54:48;;;;;;;14.05;8.15;;;13.20;99.90;;;;;;5051609;28;20098;-67
2022/10/25 02:57:13;;;;;;;13.60;7.95;;;13.20;99.90;;;;;;5053221;28;20119;-67
2022/10/25 02:59:39;;;;;;;13.60;7.60;;;13.20;99.90;;;;;;5052963;28;20041;-66
2022/10/25 03:02:04;;;;;;;15.10;8.30;;;13.20;99.90;;;;;;5053005;28;20144;-67
2022/10/25 03:04:30;;;;;;;15.63;8.55;;;13.20;99.90;;;;;;5052616;28;20446;-67
2022/10/25 03:06:56;;;;;;;16.75;8.23;;;13.30;99.90;;;;;;5053230;28;20374;-67
2022/10/25 03:09:22;;;;;;;12.07;7.40;;;13.30;99.90;;;;;;5052963;28;20037;-67
2022/10/25 03:11:48;;;;;;;18.58;8.77;;;13.30;99.90;;;;;;5052883;28;20547;-67
2022/10/25 03:14:13;;;;;;;17.45;8.43;;;13.30;99.90;;;;;;5052591;28;20401;-67
2022/10/25 03:16:39;;;;;;;17.02;8.18;;;13.30;99.90;;;;;;5052906;28;20087;-67
2022/10/25 03:19:04;;;;;;;15.35;8.50;;;13.30;99.90;;;;;;5051445;28;20112;-67
2022/10/25 03:21:30;;;;;;;19.02;7.70;;;13.30;99.90;;;;;;5052632;28;20476;-67
2022/10/25 03:23:56;;;;;;;16.23;8.07;;;13.30;99.90;;;;;;5051416;28;20041;-67
2022/10/25 03:26:21;;;;;;;15.95;7.47;;;13.30;99.90;;;;;;5052698;28;20044;-67
2022/10/25 03:28:47;;;;;;;15.73;8.13;;;13.30;99.90;;;;;;5052720;28;20039;-67
2022/10/25 03:31:15;;;;;;;14.18;7.78;;;13.30;99.90;;;;;;5052295;28;20198;-67
2022/10/25 03:33:41;;;;;;;12.40;7.70;;;13.30;99.90;;;;;;5051129;28;20501;-67
2022/10/25 03:36:07;;;;;;;12.90;7.82;;;13.30;99.90;;;;;;5052562;28;20044;-67
2022/10/25 03:38:32;;;;;;;14.45;7.93;;;13.20;99.90;;;;;;5052325;28;20040;-67
2022/10/25 03:40:58;;;;;;;14.65;8.02;;;13.30;99.90;;;;;;5051012;28;20068;-67
2022/10/25 03:43:24;;;;;;;18.85;8.38;;;13.30;99.90;;;;;;5052221;28;20088;-67
2022/10/25 03:45:49;;;;;;;15.40;7.63;;;13.30;99.90;;;;;;5052284;28;20064;-67
2022/10/25 03:48:15;;;;;;;19.73;8.50;;;13.30;99.90;;;;;;5050777;28;20067;-67
2022/10/25 03:50:40;;;;;;;13.90;7.18;;;13.30;99.90;;;;;;5052026;28;20367;-67
2022/10/25 03:53:06;;;;;;;18.27;8.50;;;13.30;99.90;;;;;;5052362;28;20045;-67
2022/10/25 03:55:33;;;;;;;15.00;8.27;;;13.30;99.90;;;;;;5051981;28;20418;-67
2022/10/25 03:57:58;;;;;;;15.68;7.60;;;13.30;99.90;;;;;;5051879;28;20048;-67
2022/10/25 04:00:24;;;;;;;13.50;7.70;;;13.30;99.90;;;;;;5050800;28;20037;-67
2022/10/25 04:02:54;;;;;;;13.40;8.63;;;13.30;99.90;;;;;;5051778;28;20049;-67
2022/10/25 04:05:19;;;;;;;17.70;7.90;;;13.30;99.90;;;;;;5051933;28;20033;-67
2022/10/25 04:07:45;;;;;;;11.68;7.00;;;13.30;99.90;;;;;;5052117;28;20112;-67
2022/10/25 04:10:10;;;;;;;14.80;7.60;;;13.30;99.90;;;;;;5052192;28;20044;-67
2022/10/25 04:12:36;;;;;;;14.23;7.28;;;13.30;99.90;;;;;;5051813;28;20090;-67
2022/10/25 04:15:02;;;;;;;15.55;8.55;;;13.30;99.90;;;;;;5050114;28;20118;-67
2022/10/25 04:17:27;;;;;;;15.18;7.75;;;13.30;99.90;;;;;;5051580;28;20041;-67
2022/10/25 04:19:53;;;;;;;17.35;7.55;;;13.30;99.90;;;;;;5051537;28;20033;-67
2022/10/25 04:22:18;;;;;;;14.38;7.72;;;13.30;99.90;;;;;;5051823;28;20045;-67
2022/10/25 04:24:44;;;;;;;17.48;7.93;;;13.40;99.90;;;;;;5051558;28;20141;-67
2022/10/25 04:27:09;;;;;;;16.85;8.43;;;13.30;99.90;;;;;;5051488;28;20123;-67
2022/10/25 04:29:35;;;;;;;15.60;8.15;;;13.40;99.90;;;;;;5051353;28;20045;-67
2022/10/25 04:32:00;;;;;;;16.60;6.85;;;13.40;99.90;;;;;;5051528;28;20450;-67
2022/10/25 04:34:26;;;;;;;19.95;8.18;;;13.40;99.90;;;;;;5051575;28;20413;-67
2022/10/25 04:36:51;;;;;;;16.02;8.57;;;13.40;99.90;;;;;;5051431;28;20520;-67
2022/10/25 04:39:17;;;;;;;19.48;7.78;;;13.40;99.90;;;;;;5051785;28;20482;-67
2022/10/25 04:41:42;;;;;;;16.33;6.88;;;13.40;99.90;;;;;;5051572;28;20040;-67
2022/10/25 04:44:09;;;;;;;19.63;8.23;;;13.40;99.90;;;;;;5051231;28;20524;-67
2022/10/25 04:46:34;;;;;;;19.80;7.85;;;13.40;99.90;;;;;;5051274;28;20045;-67
2022/10/25 04:49:00;;;;;;;18.08;8.65;;;13.50;99.90;;;;;;5051493;28;20515;-67
2022/10/25 04:51:26;;;;;;;18.08;7.43;;;13.40;99.90;;;;;;5051465;28;20116;-67
2022/10/25 04:53:55;;;;;;;16.55;7.85;;;13.40;99.90;;;;;;5051193;28;20509;-67
2022/10/25 04:56:20;;;;;;;14.48;6.93;;;13.40;99.90;;;;;;5050084;28;20116;-67
2022/10/25 04:58:46;;;;;;;16.98;6.97;;;13.40;99.90;;;;;;5051166;28;20207;-67
2022/10/25 05:01:14;;;;;;;15.45;7.85;;;13.40;99.90;;;;;;5051248;28;20493;-67
2022/10/25 05:03:40;;;;;;;15.57;7.80;;;13.30;99.90;;;;;;5053678;28;20441;-67
2022/10/25 05:06:06;;;;;;;22.38;7.82;;;13.30;99.90;;;;;;5055160;28;20040;-67
2022/10/25 05:08:31;;;;;;;18.13;7.20;;;13.30;99.90;;;;;;5055412;28;20044;-67
2022/10/25 05:10:57;;;;;;;15.77;7.63;;;13.30;99.90;;;;;;5054027;28;20120;-67
2022/10/25 05:13:22;;;;;;;19.05;7.85;;;13.30;99.90;;;;;;5055280;28;20081;-67
2022/10/25 05:15:57;;;;;;;13.07;8.02;;;13.30;99.90;;;;;;5053576;28;20044;-67
2022/10/25 05:18:23;;;;;;;12.15;7.35;;;13.20;99.90;;;;;;5054739;28;20063;-67
2022/10/25 05:21:00;;;;;;;17.48;8.15;;;13.20;99.90;;;;;;5053795;28;20112;-67
2022/10/25 05:23:26;;;;;;;13.88;7.38;;;13.20;99.90;;;;;;5055217;28;20056;-67
2022/10/25 05:26:06;;;;;;;16.95;7.65;;;13.20;99.90;;;;;;5054550;28;20064;-66
2022/10/25 05:28:33;;;;;;;16.80;7.10;;;13.20;99.90;;;;;;5055139;28;20048;-67
2022/10/25 05:31:13;;;;;;;15.80;6.90;;;13.20;99.90;;;;;;5055021;28;20037;-67
2022/10/25 05:33:38;;;;;;;15.52;7.63;;;13.20;99.90;;;;;;5054796;28;20037;-67
2022/10/25 05:36:04;;;;;;;19.88;7.43;;;13.20;99.90;;;;;;5054703;28;20166;-67
2022/10/25 05:38:30;;;;;;;21.17;6.82;;;13.20;99.90;;;;;;5054645;28;20073;-67
2022/10/25 05:40:58;;;;;;;13.73;7.32;;;13.10;99.90;;;;;;5054697;28;20107;-67
2022/10/25 05:43:25;;;;;;;17.70;6.88;;;13.10;99.90;;;;;;5054685;28;20122;-67
2022/10/25 05:45:51;;;;;;;15.10;6.78;;;13.10;99.90;;;;;;5054438;28;20041;-67
2022/10/25 05:48:17;;;;;;;17.67;6.63;;;13.20;99.90;;;;;;5054476;28;20051;-67
2022/10/25 05:50:44;;;;;;;15.60;7.00;;;13.20;99.90;;;;;;5054614;28;20041;-67
2022/10/25 05:53:09;;;;;;;12.10;6.13;;;13.20;99.90;;;;;;5054453;28;20037;-67
2022/10/25 05:55:35;;;;;;;12.07;6.10;;;13.20;99.90;;;;;;5054497;28;20501;-67
2022/10/25 05:58:02;;;;;;;13.13;6.63;;;13.20;99.90;;;;;;5054362;28;20103;-67
2022/10/25 06:00:27;;;;;;;10.88;5.90;;;13.20;99.90;;;;;;5054281;28;20051;-67
2022/10/25 06:02:53;;;;;;;12.77;6.82;;;13.20;99.90;;;;;;5054177;28;20037;-67
2022/10/25 06:05:20;;;;;;;15.20;5.78;;;13.20;99.90;;;;;;5053899;28;20040;-66
2022/10/25 06:07:46;;;;;;;13.57;5.97;;;13.10;99.90;;;;;;5053833;28;20045;-66
2022/10/25 06:10:12;;;;;;;11.85;5.60;;;13.20;99.90;;;;;;5052919;28;20132;-67
2022/10/25 06:12:37;;;;;;;15.93;5.45;;;13.10;99.90;;;;;;5054105;28;20041;-66
2022/10/25 06:15:03;;;;;;;12.13;5.50;;;13.20;99.90;;;;;;5050569;28;20045;-66
2022/10/25 06:17:29;;;;;;;13.52;4.80;;;13.10;99.90;;;;;;5050525;28;20291;-66
2022/10/25 06:19:54;;;;;;;16.42;5.63;;;13.10;99.90;;;;;;5050949;28;20037;-66
2022/10/25 06:22:20;;;;;;;16.45;5.00;;;13.10;99.90;;;;;;5052442;28;20044;-66
2022/10/25 06:24:45;;;;;;;14.98;5.82;;;13.10;99.90;;;;;;5053587;28;20078;-66
2022/10/25 06:27:11;;;;;;;21.52;5.47;;;13.10;99.90;;;;;;5034503;28;20129;-66
2022/10/25 06:29:36;;;;;;;22.63;6.03;;;13.00;99.90;;;;;;5052563;28;20044;-68
2022/10/25 06:32:02;;;;;;;8.13;5.60;;;13.10;99.90;;;;;;5053396;28;20045;-68
2022/10/25 06:34:28;;;;;;;10.15;5.45;;;13.10;99.90;;;;;;5053111;28;20052;-68
2022/10/25 06:36:53;;;;;;;13.30;5.47;;;13.10;99.90;;;;;;5052407;28;20405;-68
2022/10/25 06:39:19;;;;;;;14.02;5.72;;;13.00;99.90;;;;;;5053733;28;20041;-68
2022/10/25 06:41:44;;;;;;;12.10;5.05;;;13.00;99.90;;;;;;5053528;28;20040;-68
2022/10/25 06:44:10;;;;;;;17.48;5.65;;;13.00;99.90;;;;;;5053218;28;20037;-68
2022/10/25 06:46:37;;;;;;;18.20;6.75;;;13.00;99.90;;;;;;5053420;28;20064;-67
2022/10/25 06:49:05;;;;;;;17.05;6.07;;;13.00;99.90;;;;;;5053435;28;20041;-67
2022/10/25 06:51:33;;;;;;;16.20;5.53;;;13.00;99.90;;;;;;5052312;28;20072;-68
2022/10/25 06:54:00;;;;;;;8.65;5.00;;;13.10;99.90;;;;;;5053146;28;20124;-68
2022/10/25 06:56:27;;;;;;;16.23;6.32;;;13.10;99.90;;;;;;5052163;28;20076;-68
2022/10/25 06:58:53;;;;;;;14.13;5.65;;;13.10;99.90;;;;;;5053352;28;20563;-68
2022/10/25 07:01:19;;;;;;;19.70;6.32;;;13.10;99.90;;;;;;5053277;28;20041;-68
2022/10/25 07:03:46;;;;;;;13.55;5.88;;;13.10;99.90;;;;;;5051955;28;20039;-72
2022/10/25 07:06:14;;;;;;;18.45;5.70;;;13.20;99.90;;;;;;5051926;28;20489;-67
2022/10/25 07:08:42;;;;;;;16.30;5.75;;;13.20;99.90;;;;;;5053282;28;20041;-66
2022/10/25 07:11:16;;;;;;;12.70;5.80;;;13.10;99.90;;;;;;5053044;28;20037;-66
2022/10/25 07:13:41;;;;;;;15.50;5.95;;;13.20;99.90;;;;;;5051581;28;20041;-66
2022/10/25 07:16:09;;;;;;;15.82;5.47;;;13.20;99.90;;;;;;5051847;28;20451;-66
2022/10/25 07:18:36;;;;;;;14.27;5.82;;;13.20;99.90;;;;;;5051479;28;20093;-66
2022/10/25 07:21:03;;;;;;;13.75;6.10;;;13.30;99.90;;;;;;5052873;28;20037;-66
2022/10/25 07:23:30;;;;;;;18.45;6.32;;;13.30;99.90;;;;;;5051346;28;20041;-66
2022/10/25 07:25:56;;;;;;;16.52;5.32;;;13.30;99.90;;;;;;5051937;28;20559;-66
2022/10/25 07:28:22;;;;;;;19.83;5.93;;;13.30;99.90;;;;;;5051163;28;20124;-66
2022/10/25 07:30:48;;;;;;;15.07;6.57;;;13.30;99.90;;;;;;5052547;28;20107;-66
2022/10/25 07:33:16;;;;;;;17.05;5.80;;;13.40;99.90;;;;;;5051289;28;20440;-66
2022/10/25 07:35:49;;;;;;;16.83;5.55;;;13.30;99.90;;;;;;5051035;28;20055;-66
2022/10/25 07:38:15;;;;;;;17.23;6.15;;;13.40;99.90;;;;;;5052277;28;20083;-66
2022/10/25 07:40:41;;;;;;;11.73;5.32;;;13.40;99.90;;;;;;5051193;28;20401;-67
2022/10/25 07:43:07;;;;;;;11.52;5.60;;;13.40;99.90;;;;;;5034476;28;20048;-66
2022/10/25 07:45:32;;;;;;;17.90;6.60;;;13.40;99.90;;;;;;5051952;28;20029;-66
2022/10/25 07:47:58;;;;;;;13.23;5.70;;;13.40;99.90;;;;;;5052489;28;20091;-67
2022/10/25 07:50:24;;;;;;;16.02;6.45;;;13.50;99.90;;;;;;5051241;28;20049;-68
2022/10/25 07:52:49;;;;;;;13.73;6.40;;;13.50;99.90;;;;;;5052437;28;20036;-67
2022/10/25 07:55:15;;;;;;;13.55;5.63;;;13.50;99.90;;;;;;5051918;28;20462;-66
2022/10/25 07:57:40;;;;;;;16.40;6.88;;;13.60;99.90;;;;;;5052410;28;20086;-67
2022/10/25 08:00:08;;;;;;;13.57;6.40;;;13.60;99.90;;;;;;5052082;28;20037;-68
2022/10/25 08:02:34;;;;;;;11.05;6.28;;;13.60;99.90;;;;;;5052027;28;20504;-67
2022/10/25 08:05:01;;;;;;;18.48;7.85;;;13.60;99.90;;;;;;5051997;28;20045;-66
2022/10/25 08:07:27;;;;;;;21.95;6.78;;;13.60;99.90;;;;;;5051839;28;20037;-66
2022/10/25 08:09:52;;;;;;;15.27;6.78;;;13.70;99.90;;;;;;5050736;28;20487;-66
2022/10/25 08:12:18;;;;;;;18.00;6.95;;;13.70;99.90;;;;;;5051664;28;20126;-66
2022/10/25 08:14:44;;;;;;;14.45;7.07;;;13.70;99.90;;;;;;5050394;28;20089;-66
2022/10/25 08:17:10;;;;;;;20.65;7.75;;;13.70;99.90;;;;;;5051919;28;20037;-66
2022/10/25 08:19:35;;;;;;;17.55;7.13;;;13.70;99.90;;;;;;5051762;28;20579;-66
2022/10/25 08:22:01;;;;;;;25.02;7.50;;;13.80;99.90;;;;;;5051946;28;20132;-67
2022/10/25 08:24:27;;;;;;;19.30;7.47;;;13.80;99.90;;;;;;5051770;28;20040;-67
2022/10/25 08:26:52;;;;;;;15.25;7.45;;;13.90;99.90;;;;;;5050384;28;20041;-67
2022/10/25 08:29:18;;;;;;;20.25;8.02;;;13.90;99.90;;;;;;5050414;28;20040;-67
2022/10/25 08:31:43;;;;;;;17.10;7.45;;;13.90;99.90;;;;;;5052025;28;20787;-67
2022/10/25 08:34:09;;;;;;;16.13;7.63;;;13.90;99.90;;;;;;5051287;28;20040;-71
2022/10/25 08:36:34;;;;;;;17.92;8.02;;;14.00;99.90;;;;;;5049603;28;20477;-70
2022/10/25 08:39:00;;;;;;;15.25;8.27;;;14.00;99.90;;;;;;5050060;28;20479;-72
2022/10/25 08:41:55;;;;;;;14.75;7.95;;;14.10;99.90;;;;;;5050279;28;20072;-71
2022/10/25 08:44:23;;;;;;;21.17;7.18;;;14.10;99.90;;;;;;5033213;28;20124;-71
2022/10/25 08:47:05;;;;;;;18.60;7.68;;;14.10;99.90;;;;;;5050692;28;20033;-67
2022/10/25 08:49:56;;;;;;;22.50;7.72;;;14.10;99.90;;;;;;5031445;28;20485;-67
2022/10/25 08:52:42;;;;;;;13.57;6.57;;;14.10;99.90;;;;;;5050369;28;20559;-67
2022/10/25 08:55:19;;;;;;;14.95;7.80;;;14.10;99.90;;;;;;5048731;28;20056;-67
2022/10/25 08:57:46;;;;;;;16.60;7.03;;;14.10;99.90;;;;;;5050553;28;20047;-67
2022/10/25 09:00:22;;;;;;;16.52;7.55;;;14.20;99.90;;;;;;5050215;28;20533;-67
2022/10/25 09:02:56;;;;;;;18.13;6.75;;;14.20;99.90;;;;;;5049002;28;20068;-67
2022/10/25 09:05:30;;;;;;;15.77;6.95;;;14.20;99.90;;;;;;5047988;28;20561;-67
2022/10/25 09:08:21;;;;;;;9.88;6.53;;;14.30;99.90;;;;;;5050881;28;20094;-68
2022/10/25 09:11:12;;;;;;;13.80;6.38;;;14.30;99.90;;;;;;5050630;28;20056;-67
2022/10/25 09:13:58;;;;;;;13.02;6.05;;;14.30;99.90;;;;;;5049475;28;20029;-67
2022/10/25 09:16:34;;;;;;;11.25;6.18;;;14.40;99.90;;;;;;5049983;28;20032;-67
2022/10/25 09:19:06;;;;;;;12.18;6.22;;;14.40;99.90;;;;;;5049549;28;20071;-67
2022/10/25 09:21:48;;;;;;;19.77;6.65;;;14.40;99.90;;;;;;5048513;28;20033;-67
2022/10/25 09:24:22;;;;;;;11.73;6.13;;;14.40;99.90;;;;;;5048596;28;20029;-67
2022/10/25 09:27:22;;;;;;;10.88;5.65;;;14.40;99.90;;;;;;5048530;28;20048;-67
2022/10/25 09:29:59;;;;;;;15.55;5.90;;;14.50;99.90;;;;;;5044488;28;20068;-67
2022/10/25 09:32:33;;;;;;;18.33;6.18;;;14.60;99.90;;;;;;5049478;28;20036;-68
2022/10/25 09:35:00;;;;;;;13.13;5.35;;;14.60;99.90;;;;;;5046667;28;20048;-67
2022/10/25 09:37:28;;;;;;;10.70;4.75;;;14.70;99.90;;;;;;5050689;28;20052;-67
2022/10/25 09:39:58;;;;;;;12.02;5.22;;;14.70;99.90;;;;;;5051011;28;20053;-67
2022/10/25 09:42:36;;;;;;;12.65;4.72;;;14.70;99.90;;;;;;5051065;28;20036;-67
2022/10/25 09:45:13;;;;;;;9.32;4.32;;;14.70;99.90;;;;;;5050891;28;20120;-68
2022/10/25 09:47:44;;;;;;;12.63;4.13;;;14.70;99.90;;;;;;5050427;28;20499;-67
2022/10/25 09:50:34;;;;;;;16.75;5.30;;;14.70;99.90;;;;;;5052011;28;20063;-67
2022/10/25 09:53:04;;;;;;;11.40;4.40;;;14.70;99.90;;;;;;5052954;28;20527;-67
2022/10/25 09:55:55;;;;;;;19.30;4.18;;;14.70;99.90;;;;;;5053749;28;20041;-67
2022/10/25 09:58:27;;;;;;;8.70;4.10;;;14.70;99.90;;;;;;5051159;28;20045;-67
2022/10/25 10:00:56;;;;;;;10.98;3.60;;;14.80;99.90;;;;;;5053578;28;20709;-67
2022/10/25 10:03:26;;;;;;;6.28;3.67;;;14.80;99.90;;;;;;5035242;28;20049;-67
2022/10/25 10:05:55;;;;;;;12.07;4.05;;;14.80;99.90;;;;;;5052381;28;20045;-66
2022/10/25 10:08:22;;;;;;;8.73;3.22;;;14.80;99.90;;;;;;5053507;28;20397;-66
2022/10/25 10:10:49;;;;;;;9.90;3.47;;;14.80;99.90;;;;;;5054529;28;20041;-68
2022/10/25 10:13:23;;;;;;;10.07;5.45;;;14.90;99.90;;;;;;5054074;28;20055;-68
2022/10/25 10:15:55;;;;;;;3.95;3.10;;;14.90;99.90;;;;;;5052700;28;20041;-67
2022/10/25 10:18:21;;;;;;;11.10;3.33;;;14.90;99.90;;;;;;5053973;28;20087;-68
2022/10/25 10:21:04;;;;;;;10.63;3.85;;;14.90;99.90;;;;;;5054224;28;20045;-72
2022/10/25 10:23:48;;;;;;;9.07;3.67;;;14.90;99.90;;;;;;5053927;28;20049;-72
2022/10/25 10:26:25;;;;;;;8.43;3.17;;;14.90;99.90;;;;;;5052952;28;20033;-71
2022/10/25 10:29:03;;;;;;;8.25;2.80;;;14.80;99.90;;;;;;5053879;28;20091;-72
2022/10/25 10:31:35;;;;;;;11.18;3.30;;;14.80;99.90;;;;;;5052669;28;20044;-72
2022/10/25 10:34:01;;;;;;;11.68;3.17;;;14.90;99.90;;;;;;5053613;28;20076;-72
2022/10/25 10:36:29;;;;;;;9.43;3.40;;;14.80;99.90;;;;;;5052156;28;20044;-72
2022/10/25 10:39:19;;;;;;;8.30;2.63;;;14.90;99.90;;;;;;5052473;28;20119;-73
2022/10/25 10:42:02;;;;;;;8.73;3.60;;;14.90;99.90;;;;;;5052265;28;20048;-74
2022/10/25 10:44:29;;;;;;;8.63;2.85;;;14.90;99.90;;;;;;5053485;28;20366;-71
2022/10/25 10:46:55;;;;;;;8.23;3.13;;;15.00;99.90;;;;;;5052305;28;20048;-70
2022/10/25 10:49:35;;;;;;;8.93;3.17;;;15.00;99.90;;;;;;5052261;28;20033;-70
2022/10/25 10:52:02;;;;;;;6.30;2.72;;;15.00;99.90;;;;;;5052297;28;20064;-71
2022/10/25 10:54:33;;;;;;;12.30;3.90;;;15.10;99.90;;;;;;5053158;28;20041;-67
2022/10/25 10:57:04;;;;;;;8.07;2.60;;;15.10;99.90;;;;;;5053395;28;20033;-67
2022/10/25 10:59:35;;;;;;;8.25;2.88;;;15.20;99.90;;;;;;5034520;28;20283;-67
2022/10/25 11:02:36;;;;;;;7.00;2.83;;;15.20;99.90;;;;;;5052771;28;20045;-67
2022/10/25 11:05:17;;;;;;;5.95;2.70;;;15.20;99.90;;;;;;5021744;28;20057;-67
2022/10/25 11:07:43;;;;;;;6.63;2.75;;;15.30;99.90;;;;;;5021376;28;20037;-67
2022/10/25 11:10:17;;;;;;;7.28;2.13;;;15.30;99.90;;;;;;5003969;28;20046;-67
2022/10/25 11:12:43;;;;;;;8.77;2.35;;;15.40;99.90;;;;;;5004775;28;20041;-67
2022/10/25 11:15:13;;;;;;;8.52;2.58;;;15.40;99.90;;;;;;5019945;28;20103;-67
2022/10/25 11:17:56;;;;;;;7.53;2.58;;;15.40;99.90;;;;;;5026996;28;20124;-67
2022/10/25 11:20:40;;;;;;;5.95;2.30;;;15.40;99.90;;;;;;5023369;28;20059;-67
2022/10/25 11:23:20;;;;;;;9.68;2.30;;;15.40;99.90;;;;;;5017773;28;20156;-67
2022/10/25 11:26:08;;;;;;;9.13;2.38;;;15.40;99.90;;;;;;5028755;28;20045;-67
2022/10/25 11:28:59;;;;;;;8.43;2.28;;;15.40;99.90;;;;;;5028111;28;20044;-68
2022/10/25 11:31:53;;;;;;;8.02;2.70;;;15.40;99.90;;;;;;5029594;28;20072;-67
2022/10/25 11:34:44;;;;;;;7.55;2.92;;;15.50;99.90;;;;;;5020743;28;20048;-67
2022/10/25 11:37:35;;;;;;;4.32;2.28;;;15.40;99.90;;;;;;5029398;28;20033;-67
2022/10/25 11:40:04;;;;;;;8.18;2.50;;;15.50;99.90;;;;;;5029235;28;20120;-68
2022/10/25 11:42:56;;;;;;;3.65;2.08;;;15.50;99.90;;;;;;5050278;28;20045;-68
2022/10/25 11:45:48;;;;;;;5.60;2.30;;;15.50;99.90;;;;;;5049528;28;20051;-67
2022/10/25 11:48:47;;;;;;;7.70;2.00;;;15.50;99.90;;;;;;5049579;28;20040;-69
2022/10/25 11:51:25;;;;;;;8.43;1.92;;;15.40;99.90;;;;;;5052415;28;20067;-68
2022/10/25 11:53:56;;;;;;;6.38;1.63;;;15.40;99.90;;;;;;5051801;28;20405;-68
2022/10/25 11:56:40;;;;;;;10.63;2.17;;;15.40;99.90;;;;;;5051540;28;20483;-68
2022/10/25 11:59:37;;;;;;;5.35;1.90;;;15.40;99.90;;;;;;5050053;28;20063;-66
2022/10/25 12:02:12;;;;;;;9.98;2.35;;;15.50;99.90;;;;;;5051024;28;20045;-67
2022/10/25 12:04:43;;;;;;;6.47;2.20;;;15.50;99.90;;;;;;5051625;28;20112;-67
2022/10/25 12:07:30;;;;;;;7.60;2.25;;;15.50;99.90;;;;;;5051960;28;20080;-67
2022/10/25 12:10:08;;;;;;;7.22;2.47;;;15.50;99.90;;;;;;5050726;28;20033;-67
2022/10/25 12:12:51;;;;;;;10.48;2.55;;;15.50;99.90;;;;;;5051903;28;20045;-67
2022/10/25 12:15:22;;;;;;;5.10;2.45;;;15.50;99.90;;;;;;5051838;28;20120;-67
2022/10/25 12:17:48;;;;;;;7.15;2.38;;;15.50;99.90;;;;;;5051768;28;20048;-67
2022/10/25 12:20:26;;;;;;;9.18;2.17;;;15.50;99.90;;;;;;5052020;28;20047;-67
2022/10/25 12:22:55;;;;;;;5.43;2.28;;;15.50;99.90;;;;;;5050610;28;20378;-67
2022/10/25 12:25:28;;;;;;;7.50;2.05;;;15.50;99.90;;;;;;5051586;28;20036;-67
2022/10/25 12:28:03;;;;;;;3.90;1.90;;;15.50;99.90;;;;;;5050620;28;20052;-67
2022/10/25 12:30:31;;;;;;;6.97;2.10;;;15.50;99.90;;;;;;5051821;28;20045;-67
2022/10/25 12:33:02;;;;;;;4.25;1.70;;;15.60;99.90;;;;;;5052182;28;20072;-67
2022/10/25 12:35:34;;;;;;;6.13;2.20;;;15.60;99.90;;;;;;5050515;28;20433;-67
2022/10/25 12:38:14;;;;;;;6.25;3.20;;;15.70;99.90;;;;;;5050750;28;20045;-67
2022/10/25 12:40:44;;;;;;;5.25;2.10;;;15.80;99.90;;;;;;5051763;28;20069;-67
2022/10/25 12:43:09;;;;;;;8.52;2.40;;;15.80;99.90;;;;;;5049896;28;20124;-67
2022/10/25 12:45:41;;;;;;;4.32;2.30;;;15.80;99.90;;;;;;5050159;28;20125;-67
2022/10/25 12:48:22;;;;;;;3.95;2.08;;;15.90;99.90;;;;;;5050283;28;20116;-67
2022/10/25 12:51:06;;;;;;;5.55;2.60;;;15.80;99.90;;;;;;5051789;28;20037;-67
2022/10/25 12:54:06;;;;;;;6.32;2.13;;;15.80;99.90;;;;;;5050432;28;20048;-67
2022/10/25 12:57:02;;;;;;;8.80;2.75;;;15.80;99.90;;;;;;5051494;28;20231;-67
2022/10/25 12:59:31;;;;;;;7.45;2.63;;;15.80;99.90;;;;;;5051415;28;20041;-67